ADDS METAR Data INFO
IDs: Format: Raw Decoded Include TAF

Data at: 2037 UTC 22 Feb 2018

KCGC 222035Z AUTO 09006KT 10SM SCT060 30/15 A3031 RMK AO2
KCGC 222015Z AUTO 10006KT 10SM SCT060 28/15 A3032 RMK AO2
KCGC 221955Z AUTO 14004KT 10SM SCT060 28/15 A3032 RMK AO2
KCGC 221935Z AUTO 06007KT 10SM BKN060 30/16 A3033 RMK AO2
KCGC 221915Z AUTO 12004KT 10SM SCT050 27/15 A3035 RMK AO2
KCGC 221855Z AUTO 08005KT 10SM SCT050 29/15 A3035 RMK AO2
KCGC 221835Z AUTO 00000KT 10SM BKN050 28/16 A3036 RMK AO2
KCGC 221815Z AUTO 08008KT 10SM BKN050 28/16 A3037 RMK AO2
KCGC 221755Z AUTO 10005KT 10SM SCT043 SCT050 28/16 A3038 RMK AO2
KCGC 221735Z AUTO 09008KT 10SM BKN043 OVC050 27/16 A3039 RMK AO2
KCGC 221715Z AUTO 11006KT 10SM BKN041 OVC047 28/16 A3040 RMK AO2
KCGC 221655Z AUTO 09009G14KT 10SM BKN041 BKN049 27/17 A3040 RMK AO2
KCGC 221635Z AUTO 09004KT 10SM SCT047 26/17 A3041 RMK AO2
KCGC 221615Z AUTO 09006G09KT 10SM SCT031 SCT042 BKN047 26/17 A3042 RMK AO2
KCGC 221555Z AUTO 11006KT 10SM SCT031 SCT040 BKN047 26/18 A3042 RMK AO2
KCGC 221535Z AUTO 10005KT 10SM OVC047 25/18 A3042 RMK AO2
KCGC 221515Z AUTO 10005KT 10SM BKN047 24/18 A3043 RMK AO2
KCGC 221455Z AUTO 12008KT 10SM CLR 23/19 A3042 RMK AO2
KCGC 221435Z AUTO 11006KT 10SM CLR 23/19 A3042 RMK AO2
KCGC 221415Z AUTO 10006KT 10SM CLR 23/19 A3042 RMK AO2
KCGC 221355Z AUTO 09006KT 10SM CLR 22/19 A3041 RMK AO2
KCGC 221335Z AUTO 08004KT 10SM CLR 21/19 A3041 RMK AO2
KCGC 221315Z AUTO 00000KT 10SM CLR 19/19 A3040 RMK AO2
KCGC 221255Z AUTO 08003KT 7SM CLR 18/18 A3040 RMK AO2
KCGC 221235Z AUTO 00000KT 7SM CLR 17/17 A3040 RMK AO2
KCGC 221215Z AUTO 00000KT 5SM BR CLR 17/17 A3039 RMK AO2
KCGC 221155Z AUTO 00000KT 7SM CLR 17/17 A3039 RMK AO2
KCGC 221135Z AUTO 00000KT 5SM BR SCT014 17/17 A3038 RMK AO2
KCGC 221115Z AUTO 00000KT 5SM BR CLR 17/17 A3038 RMK AO2
KCGC 221055Z AUTO 00000KT 7SM CLR 18/18 A3037 RMK AO2
KCGC 221035Z AUTO 00000KT 7SM CLR 18/17 A3037 RMK AO2
KCGC 221015Z AUTO 00000KT 7SM CLR 18/18 A3037 RMK AO2
KCGC 220955Z AUTO 11003KT 2 1/2SM BR SCT014 17/17 A3037 RMK AO2 VIS 3/4V5
KCGC 220935Z AUTO 00000KT 1/4SM FG OVC014 17/17 A3037 RMK AO2
KCGC 220915Z AUTO 00000KT 1SM BR BKN014 18/17 A3037 RMK AO2
KCGC 220855Z AUTO 00000KT 2 1/2SM BR CLR 18/17 A3037 RMK AO2 VIS 3/4V5
KCGC 220835Z AUTO 00000KT 10SM CLR 19/18 A3037 RMK AO2
KCGC 220815Z AUTO 00000KT 10SM CLR 19/18 A3037 RMK AO2
KCGC 220755Z AUTO 00000KT 10SM CLR 19/18 A3037 RMK AO2
KCGC 220735Z AUTO 00000KT 10SM CLR 19/18 A3037 RMK AO2
KCGC 220715Z AUTO 10003KT 10SM CLR 20/18 A3037 RMK AO2
KCGC 220655Z AUTO 00000KT 10SM CLR 20/18 A3037 RMK AO2
KCGC 220635Z AUTO 10003KT 10SM CLR 20/18 A3037 RMK AO2
KCGC 220615Z AUTO 10003KT 10SM CLR 20/18 A3037 RMK AO2
KCGC 220555Z AUTO 10003KT 7SM CLR 21/18 A3037 RMK AO2
KCGC 220535Z AUTO 11003KT 10SM CLR 21/18 A3038 RMK AO2
KCGC 220515Z AUTO 12003KT 10SM CLR 21/18 A3037 RMK AO2
KCGC 220455Z AUTO 11003KT 10SM CLR 21/18 A3037 RMK AO2
KCGC 220435Z AUTO 11005KT 10SM CLR 22/18 A3037 RMK AO2
KCGC 220415Z AUTO 11004KT 10SM CLR 22/18 A3038 RMK AO2
KCGC 220355Z AUTO 11005KT 10SM CLR 22/17 A3038 RMK AO2
KCGC 220035Z AUTO 09004KT 10SM CLR 25/17 A3034 RMK AO2
KCGC 220015Z AUTO 09003KT 10SM CLR 25/16 A3033 RMK AO2
KCGC 212355Z AUTO 10004KT 10SM CLR 26/16 A3032 RMK AO2
KCGC 212335Z AUTO 09005KT 10SM SCT060 26/16 A3032 RMK AO2
KCGC 212315Z AUTO 09005KT 10SM BKN060 27/16 A3032 RMK AO2
KCGC 212255Z AUTO 09007KT 10SM OVC060 28/16 A3031 RMK AO2
KCGC 212235Z AUTO 09006KT 10SM BKN060 BKN075 29/16 A3031 RMK AO2
KCGC 212215Z AUTO 08010KT 10SM SCT060 SCT075 30/16 A3030 RMK AO2
KCGC 212155Z AUTO 09007KT 10SM SCT060 SCT070 30/16 A3030 RMK AO2
KCGC 212135Z AUTO 07008KT 10SM CLR 29/16 A3030 RMK AO2
KCGC 212115Z AUTO 09006KT 060V130 10SM CLR 30/16 A3030 RMK AO2
KCGC 212055Z AUTO 08008KT 10SM SCT031 SCT037 BKN055 30/17 A3030 RMK AO2
KCGC 212035Z AUTO 10008G14KT 070V130 10SM SCT055 31/17 A3030 RMK AO2
KCGC 212015Z AUTO 09008KT 10SM SCT055 29/17 A3031 RMK AO2
KCGC 211955Z AUTO 11005KT 10SM CLR 30/16 A3031 RMK AO2
KCGC 211935Z AUTO 10006KT 10SM SCT055 30/16 A3032 RMK AO2
KCGC 211915Z AUTO 11005KT 10SM SCT055 31/16 A3032 RMK AO2
KCGC 211855Z AUTO 11006KT 10SM SCT049 30/16 A3033 RMK AO2
KCGC 211835Z AUTO 08007KT 10SM SCT049 31/17 A3034 RMK AO2
KCGC 211815Z AUTO 08006KT 10SM SCT047 29/17 A3035 RMK AO2
KCGC 211755Z AUTO 07006KT 10SM SCT045 30/17 A3035 RMK AO2
KCGC 211735Z AUTO 09006KT 060V120 10SM BKN043 30/17 A3036 RMK AO2
KCGC 211715Z AUTO 13008G15KT 10SM BKN043 30/17 A3037 RMK AO2
KCGC 211655Z AUTO 09006KT 10SM BKN041 30/17 A3038 RMK AO2
KCGC 211635Z AUTO 10007KT 10SM SCT039 28/17 A3039 RMK AO2
KCGC 211615Z AUTO 11007KT 10SM SCT039 28/18 A3040 RMK AO2
KCGC 211555Z AUTO 12008KT 10SM CLR 28/17 A3040 RMK AO2
KCGC 211535Z AUTO 15007KT 120V180 10SM CLR 27/17 A3041 RMK AO2
KCGC 211515Z AUTO 11009G14KT 10SM SCT033 27/17 A3041 RMK AO2
KCGC 211455Z AUTO 14008G14KT 10SM CLR 26/18 A3040 RMK AO2
KCGC 211435Z AUTO 12006KT 10SM SCT018 26/20 A3040 RMK AO2
KCGC 211415Z AUTO 11006KT 10SM BKN016 BKN021 24/20 A3040 RMK AO2
KCGC 211355Z AUTO 14007KT 10SM SCT014 24/20 A3040 RMK AO2
KCGC 211335Z AUTO 11006KT 10SM SCT012 23/20 A3039 RMK AO2
KCGC 211315Z AUTO 12005KT 10SM BKN012 23/20 A3039 RMK AO2
KCGC 211255Z AUTO 12004KT 10SM BKN012 22/20 A3038 RMK AO2
KCGC 211235Z AUTO 12004KT 10SM OVC014 22/20 A3038 RMK AO2